Bryson, Texas
Current Conditions -  °F | °C
As of 9:30 PM on Sunday 23 Nov 2014 (Local Time) from KRPH Reporting Station
Clear Clear  
Wind Chill: 45°   Ceiling: Unl
Heat Index: 47°   Visibility: 10mi
Dew Point: 37°   Wind: 6mph
Humidity: 68%   Direction: 280°W
Pressure: 29.82"   Gusts: NA
Location:  33.16°N, 98.39°W
Report Text: KRPH 240330Z AUTO 28005KT 10SM CLR 09/03 A2982 RMK AO2 T00850028
Loading
Personal Weather Stations






























Interactive Weather Map New forecast layout! Learn more

10-Day Weather Forecast

Advertisements
Track Severe Weather on mobile